sensor_id;sensor_type;location;lat;lon;timestamp;pressure;altitude;pressure_sealevel;temperature;humidity
17311;BME280;8773;43.300;0.394;2022-08-02T00:02:19;99792.53;;;27.58;100.00
17311;BME280;8773;43.300;0.394;2022-08-02T00:04:47;99784.53;;;27.57;100.00
17311;BME280;8773;43.300;0.394;2022-08-02T00:07:15;99784.56;;;27.55;100.00
17311;BME280;8773;43.300;0.394;2022-08-02T00:09:45;99784.56;;;27.55;100.00
17311;BME280;8773;43.300;0.394;2022-08-02T00:12:13;99786.38;;;27.55;100.00
17311;BME280;8773;43.300;0.394;2022-08-02T00:14:41;99787.31;;;27.54;100.00
17311;BME280;8773;43.300;0.394;2022-08-02T00:17:09;99782.81;;;27.54;100.00
17311;BME280;8773;43.300;0.394;2022-08-02T00:19:37;99786.44;;;27.53;100.00
17311;BME280;8773;43.300;0.394;2022-08-02T00:22:05;99781.09;;;27.52;100.00
17311;BME280;8773;43.300;0.394;2022-08-02T00:24:33;99778.44;;;27.52;100.00
17311;BME280;8773;43.300;0.394;2022-08-02T00:27:02;99783.78;;;27.52;100.00
17311;BME280;8773;43.300;0.394;2022-08-02T00:29:35;99780.25;;;27.51;100.00
17311;BME280;8773;43.300;0.394;2022-08-02T00:32:19;99778.47;;;27.50;100.00
17311;BME280;8773;43.300;0.394;2022-08-02T00:34:47;99776.72;;;27.49;100.00
17311;BME280;8773;43.300;0.394;2022-08-02T00:37:15;99774.13;;;27.46;100.00
17311;BME280;8773;43.300;0.394;2022-08-02T00:39:43;99778.53;;;27.48;100.00
17311;BME280;8773;43.300;0.394;2022-08-02T00:42:14;99773.28;;;27.44;100.00
17311;BME280;8773;43.300;0.394;2022-08-02T00:44:42;99776.81;;;27.46;100.00
17311;BME280;8773;43.300;0.394;2022-08-02T00:47:10;99778.63;;;27.45;100.00
17311;BME280;8773;43.300;0.394;2022-08-02T00:49:45;99764.38;;;27.43;100.00
17311;BME280;8773;43.300;0.394;2022-08-02T00:52:13;99771.50;;;27.43;100.00
17311;BME280;8773;43.300;0.394;2022-08-02T00:54:41;99775.13;;;27.42;100.00
17311;BME280;8773;43.300;0.394;2022-08-02T00:57:09;99777.84;;;27.40;100.00
17311;BME280;8773;43.300;0.394;2022-08-02T00:59:38;99782.22;;;27.43;100.00
17311;BME280;8773;43.300;0.394;2022-08-02T01:02:07;99778.78;;;27.39;100.00
17311;BME280;8773;43.300;0.394;2022-08-02T01:04:36;99781.44;;;27.39;100.00
17311;BME280;8773;43.300;0.394;2022-08-02T01:07:04;99780.56;;;27.39;100.00
17311;BME280;8773;43.300;0.394;2022-08-02T01:09:40;99778.81;;;27.38;100.00
17311;BME280;8773;43.300;0.394;2022-08-02T01:12:08;99778.00;;;27.36;100.00
17311;BME280;8773;43.300;0.394;2022-08-02T01:14:39;99781.47;;;27.38;100.00
17311;BME280;8773;43.300;0.394;2022-08-02T01:17:16;99771.78;;;27.34;100.00
17311;BME280;8773;43.300;0.394;2022-08-02T01:19:51;99769.13;;;27.34;100.00
17311;BME280;8773;43.300;0.394;2022-08-02T01:22:37;99770.94;;;27.32;100.00
17311;BME280;8773;43.300;0.394;2022-08-02T01:25:43;99764.66;;;27.33;100.00
17311;BME280;8773;43.300;0.394;2022-08-02T01:28:27;99767.44;;;27.29;100.00
17311;BME280;8773;43.300;0.394;2022-08-02T01:30:59;99761.97;;;27.33;100.00
17311;BME280;8773;43.300;0.394;2022-08-02T01:33:34;99759.38;;;27.31;100.00
17311;BME280;8773;43.300;0.394;2022-08-02T01:36:08;99755.81;;;27.31;100.00
17311;BME280;8773;43.300;0.394;2022-08-02T01:38:41;99760.34;;;27.28;100.00
17311;BME280;8773;43.300;0.394;2022-08-02T01:41:15;99755.00;;;27.27;100.00
17311;BME280;8773;43.300;0.394;2022-08-02T01:43:47;99760.34;;;27.28;100.00
17311;BME280;8773;43.300;0.394;2022-08-02T01:46:16;99746.09;;;27.26;100.00
17311;BME280;8773;43.300;0.394;2022-08-02T01:48:46;99752.38;;;27.25;100.00
17311;BME280;8773;43.300;0.394;2022-08-02T01:51:17;99744.34;;;27.25;100.00
17311;BME280;8773;43.300;0.394;2022-08-02T01:54:09;99745.25;;;27.24;100.00
17311;BME280;8773;43.300;0.394;2022-08-02T01:56:39;99749.75;;;27.24;100.00
17311;BME280;8773;43.300;0.394;2022-08-02T01:59:13;99747.06;;;27.24;100.00
17311;BME280;8773;43.300;0.394;2022-08-02T02:01:42;99746.22;;;27.22;100.00
17311;BME280;8773;43.300;0.394;2022-08-02T02:04:11;99749.78;;;27.22;100.00
17311;BME280;8773;43.300;0.394;2022-08-02T02:06:42;99752.53;;;27.19;100.00
17311;BME280;8773;43.300;0.394;2022-08-02T02:09:11;99751.56;;;27.22;100.00
17311;BME280;8773;43.300;0.394;2022-08-02T02:11:42;99754.25;;;27.22;100.00
17311;BME280;8773;43.300;0.394;2022-08-02T02:14:32;99748.03;;;27.21;100.00
17311;BME280;8773;43.300;0.394;2022-08-02T02:17:01;99749.88;;;27.19;100.00
17311;BME280;8773;43.300;0.394;2022-08-02T02:19:32;99750.78;;;27.18;100.00
17311;BME280;8773;43.300;0.394;2022-08-02T02:22:00;99744.50;;;27.19;100.00
17311;BME280;8773;43.300;0.394;2022-08-02T02:24:29;99738.31;;;27.17;100.00
17311;BME280;8773;43.300;0.394;2022-08-02T02:26:58;99733.00;;;27.16;100.00
17311;BME280;8773;43.300;0.394;2022-08-02T02:29:28;99736.56;;;27.16;100.00
17311;BME280;8773;43.300;0.394;2022-08-02T02:31:59;99740.97;;;27.17;100.00
17311;BME280;8773;43.300;0.394;2022-08-02T02:34:29;99736.59;;;27.15;100.00
17311;BME280;8773;43.300;0.394;2022-08-02T02:37:02;99725.94;;;27.13;100.00
17311;BME280;8773;43.300;0.394;2022-08-02T02:39:31;99731.25;;;27.15;100.00
17311;BME280;8773;43.300;0.394;2022-08-02T02:42:02;99725.94;;;27.13;100.00
17311;BME280;8773;43.300;0.394;2022-08-02T02:44:35;99728.63;;;27.13;100.00
17311;BME280;8773;43.300;0.394;2022-08-02T02:47:08;99733.06;;;27.13;100.00
17311;BME280;8773;43.300;0.394;2022-08-02T02:49:36;99730.38;;;27.14;100.00
17311;BME280;8773;43.300;0.394;2022-08-02T02:52:06;99725.00;;;27.14;100.00
17311;BME280;8773;43.300;0.394;2022-08-02T02:54:35;99729.50;;;27.14;100.00
17311;BME280;8773;43.300;0.394;2022-08-02T02:57:05;99734.88;;;27.12;100.00
17311;BME280;8773;43.300;0.394;2022-08-02T02:59:33;99732.19;;;27.12;100.00
17311;BME280;8773;43.300;0.394;2022-08-02T03:02:17;99725.09;;;27.11;100.00
17311;BME280;8773;43.300;0.394;2022-08-02T03:04:45;99731.34;;;27.12;100.00
17311;BME280;8773;43.300;0.394;2022-08-02T03:07:24;99726.91;;;27.11;100.00
17311;BME280;8773;43.300;0.394;2022-08-02T03:09:52;99719.75;;;27.11;100.00
17311;BME280;8773;43.300;0.394;2022-08-02T03:12:22;99717.06;;;27.11;100.00
17311;BME280;8773;43.300;0.394;2022-08-02T03:14:57;99715.28;;;27.10;100.00
17311;BME280;8773;43.300;0.394;2022-08-02T03:17:38;99715.38;;;27.07;100.00
17311;BME280;8773;43.300;0.394;2022-08-02T03:20:10;99713.59;;;27.07;100.00
17311;BME280;8773;43.300;0.394;2022-08-02T03:22:38;99712.69;;;27.09;100.00
17311;BME280;8773;43.300;0.394;2022-08-02T03:25:08;99712.69;;;27.09;100.00
17311;BME280;8773;43.300;0.394;2022-08-02T03:27:36;99715.38;;;27.07;100.00
17311;BME280;8773;43.300;0.394;2022-08-02T03:30:06;99709.13;;;27.08;100.00
17311;BME280;8773;43.300;0.394;2022-08-02T03:32:37;99707.34;;;27.07;100.00
17311;BME280;8773;43.300;0.394;2022-08-02T03:35:09;99710.00;;;27.09;100.00
17311;BME280;8773;43.300;0.394;2022-08-02T03:37:37;99717.16;;;27.08;100.00
17311;BME280;8773;43.300;0.394;2022-08-02T03:40:08;99714.47;;;27.08;100.00
17311;BME280;8773;43.300;0.394;2022-08-02T03:42:38;99712.78;;;27.05;100.00
17311;BME280;8773;43.300;0.394;2022-08-02T03:45:09;99710.03;;;27.07;100.00
17311;BME280;8773;43.300;0.394;2022-08-02T03:47:40;99702.94;;;27.04;100.00
17311;BME280;8773;43.300;0.394;2022-08-02T03:50:11;99707.41;;;27.05;100.00
17311;BME280;8773;43.300;0.394;2022-08-02T03:52:40;99708.28;;;27.04;100.00
17311;BME280;8773;43.300;0.394;2022-08-02T03:55:10;99703.81;;;27.05;100.00
17311;BME280;8773;43.300;0.394;2022-08-02T03:57:40;99706.47;;;27.05;100.00
17311;BME280;8773;43.300;0.394;2022-08-02T04:00:09;99701.19;;;27.03;100.00
17311;BME280;8773;43.300;0.394;2022-08-02T04:02:38;99706.47;;;27.05;100.00
17311;BME280;8773;43.300;0.394;2022-08-02T04:05:08;99699.41;;;27.02;100.00
17311;BME280;8773;43.300;0.394;2022-08-02T04:07:36;99695.00;;;27.01;100.00
17311;BME280;8773;43.300;0.394;2022-08-02T04:10:24;99695.97;;;26.99;100.00
17311;BME280;8773;43.300;0.394;2022-08-02T04:12:53;99697.66;;;27.01;100.00
17311;BME280;8773;43.300;0.394;2022-08-02T04:15:22;99693.28;;;26.99;100.00
17311;BME280;8773;43.300;0.394;2022-08-02T04:17:53;99694.16;;;26.99;100.00
17311;BME280;8773;43.300;0.394;2022-08-02T04:20:27;99691.50;;;26.98;100.00
17311;BME280;8773;43.300;0.394;2022-08-02T04:22:59;99692.44;;;26.97;100.00
17311;BME280;8773;43.300;0.394;2022-08-02T04:25:30;99691.56;;;26.96;100.00
17311;BME280;8773;43.300;0.394;2022-08-02T04:28:06;99695.13;;;26.97;100.00
17311;BME280;8773;43.300;0.394;2022-08-02T04:30:44;99701.34;;;26.97;100.00
17311;BME280;8773;43.300;0.394;2022-08-02T04:33:13;99702.28;;;26.96;100.00
17311;BME280;8773;43.300;0.394;2022-08-02T04:35:43;99691.59;;;26.95;100.00
17311;BME280;8773;43.300;0.394;2022-08-02T04:38:12;99698.75;;;26.94;100.00
17311;BME280;8773;43.300;0.394;2022-08-02T04:40:49;99689.00;;;26.92;100.00
17311;BME280;8773;43.300;0.394;2022-08-02T04:43:18;99696.06;;;26.94;100.00
17311;BME280;8773;43.300;0.394;2022-08-02T04:45:49;99699.69;;;26.93;100.00
17311;BME280;8773;43.300;0.394;2022-08-02T04:48:18;99694.38;;;26.92;100.00
17311;BME280;8773;43.300;0.394;2022-08-02T04:50:47;99697.03;;;26.92;100.00
17311;BME280;8773;43.300;0.394;2022-08-02T04:53:16;99692.56;;;26.92;100.00
17311;BME280;8773;43.300;0.394;2022-08-02T04:55:44;99694.38;;;26.90;100.00
17311;BME280;8773;43.300;0.394;2022-08-02T04:58:12;99701.53;;;26.90;100.00
17311;BME280;8773;43.300;0.394;2022-08-02T05:01:00;99704.22;;;26.90;100.00
17311;BME280;8773;43.300;0.394;2022-08-02T05:03:29;99699.75;;;26.90;100.00
17311;BME280;8773;43.300;0.394;2022-08-02T05:05:58;99707.84;;;26.89;100.00
17311;BME280;8773;43.300;0.394;2022-08-02T05:08:27;99699.84;;;26.87;100.00
17311;BME280;8773;43.300;0.394;2022-08-02T05:10:55;99704.31;;;26.86;100.00
17311;BME280;8773;43.300;0.394;2022-08-02T05:13:23;99709.69;;;26.85;100.00
17311;BME280;8773;43.300;0.394;2022-08-02T05:15:51;99703.44;;;26.86;100.00
17311;BME280;8773;43.300;0.394;2022-08-02T05:18:19;99712.38;;;26.85;100.00
17311;BME280;8773;43.300;0.394;2022-08-02T05:20:47;99708.81;;;26.84;100.00
17311;BME280;8773;43.300;0.394;2022-08-02T05:23:16;99707.94;;;26.84;100.00
17311;BME280;8773;43.300;0.394;2022-08-02T05:25:44;99712.44;;;26.83;100.00
17311;BME280;8773;43.300;0.394;2022-08-02T05:28:12;99716.00;;;26.82;100.00
17311;BME280;8773;43.300;0.394;2022-08-02T05:30:40;99709.75;;;26.83;100.00
17311;BME280;8773;43.300;0.394;2022-08-02T05:33:09;99710.66;;;26.82;100.00
17311;BME280;8773;43.300;0.394;2022-08-02T05:35:37;99711.59;;;26.81;100.00
17311;BME280;8773;43.300;0.394;2022-08-02T05:38:05;99715.16;;;26.80;100.00
17311;BME280;8773;43.300;0.394;2022-08-02T05:40:37;99709.78;;;26.82;100.00
17311;BME280;8773;43.300;0.394;2022-08-02T05:43:21;99709.81;;;26.80;100.00
17311;BME280;8773;43.300;0.394;2022-08-02T05:45:50;99715.16;;;26.80;100.00
17311;BME280;8773;43.300;0.394;2022-08-02T05:48:19;99712.56;;;26.79;100.00
17311;BME280;8773;43.300;0.394;2022-08-02T05:50:49;99707.19;;;26.79;100.00
17311;BME280;8773;43.300;0.394;2022-08-02T05:53:29;99709.91;;;26.77;100.00
17311;BME280;8773;43.300;0.394;2022-08-02T05:56:12;99712.63;;;26.76;100.00
17311;BME280;8773;43.300;0.394;2022-08-02T05:58:49;99707.28;;;26.76;100.00
17311;BME280;8773;43.300;0.394;2022-08-02T06:01:25;99709.91;;;26.77;100.00
17311;BME280;8773;43.300;0.394;2022-08-02T06:03:57;99706.34;;;26.77;100.00
17311;BME280;8773;43.300;0.394;2022-08-02T06:06:28;99711.72;;;26.75;100.00
17311;BME280;8773;43.300;0.394;2022-08-02T06:08:58;99703.69;;;26.77;100.00
17311;BME280;8773;43.300;0.394;2022-08-02T06:11:34;99705.56;;;26.73;100.00
17311;BME280;8773;43.300;0.394;2022-08-02T06:14:04;99702.81;;;26.76;100.00
17311;BME280;8773;43.300;0.394;2022-08-02T06:16:34;99706.38;;;26.75;100.00
17311;BME280;8773;43.300;0.394;2022-08-02T06:19:08;99700.16;;;26.75;100.00
17311;BME280;8773;43.300;0.394;2022-08-02T06:21:39;99700.16;;;26.75;100.00
17311;BME280;8773;43.300;0.394;2022-08-02T06:24:29;99701.09;;;26.74;100.00
17311;BME280;8773;43.300;0.394;2022-08-02T06:26:59;99698.41;;;26.74;100.00
17311;BME280;8773;43.300;0.394;2022-08-02T06:29:30;99699.38;;;26.71;100.00
17311;BME280;8773;43.300;0.394;2022-08-02T06:32:05;99695.75;;;26.72;100.00
17311;BME280;8773;43.300;0.394;2022-08-02T06:34:38;99704.75;;;26.70;100.00
17311;BME280;8773;43.300;0.394;2022-08-02T06:37:13;99703.88;;;26.69;100.00
17311;BME280;8773;43.300;0.394;2022-08-02T06:39:43;99702.91;;;26.72;100.00
17311;BME280;8773;43.300;0.394;2022-08-02T06:42:16;99705.63;;;26.70;100.00
17311;BME280;8773;43.300;0.394;2022-08-02T06:44:53;99701.13;;;26.72;100.00
17311;BME280;8773;43.300;0.394;2022-08-02T06:47:24;99697.59;;;26.70;100.00
17311;BME280;8773;43.300;0.394;2022-08-02T06:49:52;99704.72;;;26.71;100.00
17311;BME280;8773;43.300;0.394;2022-08-02T06:52:22;99702.06;;;26.70;100.00
17311;BME280;8773;43.300;0.394;2022-08-02T06:54:55;99707.44;;;26.70;100.00
17311;BME280;8773;43.300;0.394;2022-08-02T06:57:25;99699.41;;;26.70;100.00
17311;BME280;8773;43.300;0.394;2022-08-02T06:59:54;99700.34;;;26.69;100.00
17311;BME280;8773;43.300;0.394;2022-08-02T07:02:23;99702.06;;;26.70;100.00
17311;BME280;8773;43.300;0.394;2022-08-02T07:04:51;99698.53;;;26.69;100.00
17311;BME280;8773;43.300;0.394;2022-08-02T07:07:19;99702.06;;;26.70;100.00
17311;BME280;8773;43.300;0.394;2022-08-02T07:09:47;99701.19;;;26.69;100.00
17311;BME280;8773;43.300;0.394;2022-08-02T07:12:29;99706.66;;;26.66;100.00
17311;BME280;8773;43.300;0.394;2022-08-02T07:14:58;99708.34;;;26.69;100.00
17311;BME280;8773;43.300;0.394;2022-08-02T07:17:26;99708.38;;;26.67;100.00
17311;BME280;8773;43.300;0.394;2022-08-02T07:19:54;99705.72;;;26.67;100.00
17311;BME280;8773;43.300;0.394;2022-08-02T07:22:23;99709.25;;;26.68;100.00
17311;BME280;8773;43.300;0.394;2022-08-02T07:24:53;99701.22;;;26.68;100.00
17311;BME280;8773;43.300;0.394;2022-08-02T07:27:21;99704.81;;;26.68;100.00
17311;BME280;8773;43.300;0.394;2022-08-02T07:29:51;99709.25;;;26.68;100.00
17311;BME280;8773;43.300;0.394;2022-08-02T07:32:21;99705.72;;;26.67;100.00
17311;BME280;8773;43.300;0.394;2022-08-02T07:34:50;99703.03;;;26.67;100.00
17311;BME280;8773;43.300;0.394;2022-08-02T07:37:22;99703.88;;;26.69;100.00
17311;BME280;8773;43.300;0.394;2022-08-02T07:40:11;99705.69;;;26.69;100.00
17311;BME280;8773;43.300;0.394;2022-08-02T07:42:46;99709.22;;;26.69;100.00
17311;BME280;8773;43.300;0.394;2022-08-02T07:45:16;99701.19;;;26.69;100.00
17311;BME280;8773;43.300;0.394;2022-08-02T07:47:44;99699.47;;;26.68;100.00
17311;BME280;8773;43.300;0.394;2022-08-02T07:50:14;99699.41;;;26.70;100.00
17311;BME280;8773;43.300;0.394;2022-08-02T07:52:43;99699.47;;;26.68;100.00
17311;BME280;8773;43.300;0.394;2022-08-02T07:55:12;99696.78;;;26.68;100.00
17311;BME280;8773;43.300;0.394;2022-08-02T07:57:42;99698.53;;;26.69;100.00
17311;BME280;8773;43.300;0.394;2022-08-02T08:00:14;99701.19;;;26.69;100.00
17311;BME280;8773;43.300;0.394;2022-08-02T08:02:44;99702.16;;;26.67;100.00
17311;BME280;8773;43.300;0.394;2022-08-02T08:05:13;99695.00;;;26.67;100.00
17311;BME280;8773;43.300;0.394;2022-08-02T08:07:41;99698.53;;;26.69;100.00
17311;BME280;8773;43.300;0.394;2022-08-02T08:10:09;99696.72;;;26.70;100.00
17311;BME280;8773;43.300;0.394;2022-08-02T08:12:38;99692.25;;;26.70;100.00
17311;BME280;8773;43.300;0.394;2022-08-02T08:15:07;99683.31;;;26.71;100.00
17311;BME280;8773;43.300;0.394;2022-08-02T08:17:36;99682.47;;;26.69;100.00
17311;BME280;8773;43.300;0.394;2022-08-02T08:20:06;99686.94;;;26.69;100.00
17311;BME280;8773;43.300;0.394;2022-08-02T08:22:39;99678.00;;;26.70;100.00
17311;BME280;8773;43.300;0.394;2022-08-02T08:25:07;99678.06;;;26.68;100.00
17311;BME280;8773;43.300;0.394;2022-08-02T08:27:35;99677.13;;;26.69;100.00
17311;BME280;8773;43.300;0.394;2022-08-02T08:30:04;99673.50;;;26.70;100.00
17311;BME280;8773;43.300;0.394;2022-08-02T08:32:33;99670.84;;;26.70;100.00
17311;BME280;8773;43.300;0.394;2022-08-02T08:35:01;99666.38;;;26.71;100.00
17311;BME280;8773;43.300;0.394;2022-08-02T08:37:33;99665.56;;;26.67;100.00
17311;BME280;8773;43.300;0.394;2022-08-02T08:40:03;99662.81;;;26.70;100.00
17311;BME280;8773;43.300;0.394;2022-08-02T08:42:31;99661.91;;;26.71;100.00
17311;BME280;8773;43.300;0.394;2022-08-02T08:44:59;99659.25;;;26.70;100.00
17311;BME280;8773;43.300;0.394;2022-08-02T08:47:34;99659.31;;;26.68;100.00
17311;BME280;8773;43.300;0.394;2022-08-02T08:50:04;99659.22;;;26.71;100.00
17311;BME280;8773;43.300;0.394;2022-08-02T08:52:40;99653.91;;;26.70;100.00
17311;BME280;8773;43.300;0.394;2022-08-02T08:55:09;99659.25;;;26.70;100.00
17311;BME280;8773;43.300;0.394;2022-08-02T08:57:40;99657.44;;;26.72;100.00
17311;BME280;8773;43.300;0.394;2022-08-02T09:00:10;99650.34;;;26.71;100.00
17311;BME280;8773;43.300;0.394;2022-08-02T09:02:39;99654.75;;;26.72;100.00
17311;BME280;8773;43.300;0.394;2022-08-02T09:05:09;99655.63;;;26.72;100.00
17311;BME280;8773;43.300;0.394;2022-08-02T09:07:40;99648.47;;;26.73;100.00
17311;BME280;8773;43.300;0.394;2022-08-02T09:10:32;99650.38;;;26.69;100.00
17311;BME280;8773;43.300;0.394;2022-08-02T09:13:12;99640.59;;;26.68;100.00
17311;BME280;8773;43.300;0.394;2022-08-02T09:16:03;99642.31;;;26.71;100.00
17311;BME280;8773;43.300;0.394;2022-08-02T09:18:40;99642.25;;;26.72;100.00
17311;BME280;8773;43.300;0.394;2022-08-02T09:21:10;99640.41;;;26.74;100.00
17311;BME280;8773;43.300;0.394;2022-08-02T09:23:40;99636.03;;;26.72;100.00
17311;BME280;8773;43.300;0.394;2022-08-02T09:26:10;99640.41;;;26.74;100.00
17311;BME280;8773;43.300;0.394;2022-08-02T09:28:40;99638.59;;;26.75;100.00
17311;BME280;8773;43.300;0.394;2022-08-02T09:31:09;99641.28;;;26.75;100.00
17311;BME280;8773;43.300;0.394;2022-08-02T09:33:40;99633.31;;;26.73;100.00
17311;BME280;8773;43.300;0.394;2022-08-02T09:36:10;99634.19;;;26.74;100.00
17311;BME280;8773;43.300;0.394;2022-08-02T09:38:50;99633.31;;;26.73;100.00
17311;BME280;8773;43.300;0.394;2022-08-02T09:41:20;99635.06;;;26.74;100.00
17311;BME280;8773;43.300;0.394;2022-08-02T09:43:49;99629.75;;;26.73;100.00
17311;BME280;8773;43.300;0.394;2022-08-02T09:46:33;99630.59;;;26.75;100.00
17311;BME280;8773;43.300;0.394;2022-08-02T09:49:05;99630.59;;;26.75;100.00
17311;BME280;8773;43.300;0.394;2022-08-02T09:51:35;99626.09;;;26.75;100.00
17311;BME280;8773;43.300;0.394;2022-08-02T09:54:06;99631.44;;;26.75;100.00
17311;BME280;8773;43.300;0.394;2022-08-02T09:56:41;99619.94;;;26.73;100.00
17311;BME280;8773;43.300;0.394;2022-08-02T09:59:09;99616.31;;;26.76;100.00
17311;BME280;8773;43.300;0.394;2022-08-02T10:01:38;99613.63;;;26.76;100.00
17311;BME280;8773;43.300;0.394;2022-08-02T10:04:20;99614.50;;;26.76;100.00
17311;BME280;8773;43.300;0.394;2022-08-02T10:06:51;99618.91;;;26.77;100.00
17311;BME280;8773;43.300;0.394;2022-08-02T10:09:21;99608.28;;;26.76;100.00
17311;BME280;8773;43.300;0.394;2022-08-02T10:11:50;99610.00;;;26.78;100.00
17311;BME280;8773;43.300;0.394;2022-08-02T10:14:19;99612.66;;;26.78;100.00
17311;BME280;8773;43.300;0.394;2022-08-02T10:16:50;99607.25;;;26.80;100.00
17311;BME280;8773;43.300;0.394;2022-08-02T10:19:20;99607.25;;;26.80;100.00
17311;BME280;8773;43.300;0.394;2022-08-02T10:22:10;99611.72;;;26.79;100.00
17311;BME280;8773;43.300;0.394;2022-08-02T10:24:40;99604.56;;;26.80;100.00
17311;BME280;8773;43.300;0.394;2022-08-02T10:27:16;99609.91;;;26.81;100.00
17311;BME280;8773;43.300;0.394;2022-08-02T10:29:46;99597.41;;;26.80;100.00
17311;BME280;8773;43.300;0.394;2022-08-02T10:32:24;99595.63;;;26.81;100.00
17311;BME280;8773;43.300;0.394;2022-08-02T10:34:57;99592.97;;;26.81;100.00
17311;BME280;8773;43.300;0.394;2022-08-02T10:37:45;99594.72;;;26.82;100.00
17311;BME280;8773;43.300;0.394;2022-08-02T10:40:16;99583.06;;;26.83;100.00
17311;BME280;8773;43.300;0.394;2022-08-02T10:42:53;99585.75;;;26.83;100.00
17311;BME280;8773;43.300;0.394;2022-08-02T10:45:26;99580.34;;;26.84;100.00
17311;BME280;8773;43.300;0.394;2022-08-02T10:48:00;99580.47;;;26.81;100.00
17311;BME280;8773;43.300;0.394;2022-08-02T10:50:51;99575.09;;;26.81;100.00
17311;BME280;8773;43.300;0.394;2022-08-02T10:53:29;99574.13;;;26.84;100.00
17311;BME280;8773;43.300;0.394;2022-08-02T10:56:00;99566.09;;;26.84;100.00
17311;BME280;8773;43.300;0.394;2022-08-02T10:58:30;99563.44;;;26.84;100.00
17311;BME280;8773;43.300;0.394;2022-08-02T11:01:02;99566.13;;;26.82;100.00
17311;BME280;8773;43.300;0.394;2022-08-02T11:03:38;99559.88;;;26.83;100.00
17311;BME280;8773;43.300;0.394;2022-08-02T11:06:09;99555.38;;;26.85;100.00
17311;BME280;8773;43.300;0.394;2022-08-02T11:09:24;99547.34;;;26.85;100.00
17311;BME280;8773;43.300;0.394;2022-08-02T11:12:05;99547.34;;;26.85;100.00
17311;BME280;8773;43.300;0.394;2022-08-02T11:14:34;99549.06;;;26.88;100.00
17311;BME280;8773;43.300;0.394;2022-08-02T11:17:08;99545.47;;;26.88;100.00
17311;BME280;8773;43.300;0.394;2022-08-02T11:22:37;99540.06;;;26.91;100.00
17311;BME280;8773;43.300;0.394;2022-08-02T11:25:32;99534.81;;;26.86;100.00
17311;BME280;8773;43.300;0.394;2022-08-02T11:28:22;99524.88;;;26.91;100.00
17311;BME280;8773;43.300;0.394;2022-08-02T11:30:59;99526.72;;;26.88;100.00
17311;BME280;8773;43.300;0.394;2022-08-02T11:33:32;99519.50;;;26.91;100.00
17311;BME280;8773;43.300;0.394;2022-08-02T11:36:03;99513.22;;;26.92;100.00
17311;BME280;8773;43.300;0.394;2022-08-02T11:38:31;99516.78;;;26.93;100.00
17311;BME280;8773;43.300;0.394;2022-08-02T11:41:00;99514.06;;;26.94;100.00
17311;BME280;8773;43.300;0.394;2022-08-02T11:43:36;99509.56;;;26.95;100.00
17311;BME280;8773;43.300;0.394;2022-08-02T11:46:12;99497.13;;;26.94;100.00
17311;BME280;8773;43.300;0.394;2022-08-02T11:48:41;99495.28;;;26.96;100.00
17311;BME280;8773;43.300;0.394;2022-08-02T11:51:11;99493.41;;;26.98;100.00
17311;BME280;8773;43.300;0.394;2022-08-02T11:53:44;99496.16;;;26.96;100.00
17311;BME280;8773;43.300;0.394;2022-08-02T11:56:14;99485.38;;;26.98;100.00
17311;BME280;8773;43.300;0.394;2022-08-02T11:59:02;99486.28;;;26.98;100.00
17311;BME280;8773;43.300;0.394;2022-08-02T12:01:31;99485.31;;;27.01;100.00
17311;BME280;8773;43.300;0.394;2022-08-02T12:04:15;99478.25;;;26.98;100.00
17311;BME280;8773;43.300;0.394;2022-08-02T12:06:53;99480.00;;;26.99;100.00
17311;BME280;8773;43.300;0.394;2022-08-02T12:09:22;99482.53;;;27.04;100.00
17311;BME280;8773;43.300;0.394;2022-08-02T12:11:52;99477.22;;;27.02;100.00
17311;BME280;8773;43.300;0.394;2022-08-02T12:14:22;99479.88;;;27.02;100.00
17311;BME280;8773;43.300;0.394;2022-08-02T12:16:51;99472.69;;;27.04;100.00
17311;BME280;8773;43.300;0.394;2022-08-02T12:19:37;99459.34;;;27.03;100.00
17311;BME280;8773;43.300;0.394;2022-08-02T12:22:10;99462.00;;;27.04;100.00
17311;BME280;8773;43.300;0.394;2022-08-02T12:24:40;99462.84;;;27.05;100.00
17311;BME280;8773;43.300;0.394;2022-08-02T12:27:09;99456.63;;;27.04;100.00
17311;BME280;8773;43.300;0.394;2022-08-02T12:29:39;99448.59;;;27.06;100.00
17311;BME280;8773;43.300;0.394;2022-08-02T12:32:24;99449.47;;;27.06;100.00
17311;BME280;8773;43.300;0.394;2022-08-02T12:35:17;99443.28;;;27.03;100.00
17311;BME280;8773;43.300;0.394;2022-08-02T12:37:53;99439.63;;;27.07;100.00
17311;BME280;8773;43.300;0.394;2022-08-02T12:40:24;99436.03;;;27.08;100.00
17311;BME280;8773;43.300;0.394;2022-08-02T12:42:55;99427.13;;;27.07;100.00
17311;BME280;8773;43.300;0.394;2022-08-02T12:45:27;99424.38;;;27.11;100.00
17311;BME280;8773;43.300;0.394;2022-08-02T12:48:08;99425.28;;;27.10;100.00
17311;BME280;8773;43.300;0.394;2022-08-02T12:50:37;99424.38;;;27.11;100.00
17311;BME280;8773;43.300;0.394;2022-08-02T12:53:07;99417.19;;;27.11;100.00
17311;BME280;8773;43.300;0.394;2022-08-02T12:55:36;99414.53;;;27.11;100.00
17311;BME280;8773;43.300;0.394;2022-08-02T12:58:27;99408.22;;;27.12;100.00
17311;BME280;8773;43.300;0.394;2022-08-02T13:00:57;99408.31;;;27.11;100.00
17311;BME280;8773;43.300;0.394;2022-08-02T13:03:27;99410.88;;;27.14;100.00
17311;BME280;8773;43.300;0.394;2022-08-02T13:06:16;99414.41;;;27.14;100.00
17311;BME280;8773;43.300;0.394;2022-08-02T13:09:12;99415.34;;;27.13;100.00
17311;BME280;8773;43.300;0.394;2022-08-02T13:11:40;99403.66;;;27.16;100.00
17311;BME280;8773;43.300;0.394;2022-08-02T13:14:09;99410.81;;;27.15;100.00
17311;BME280;8773;43.300;0.394;2022-08-02T13:16:39;99403.66;;;27.16;100.00
17311;BME280;8773;43.300;0.394;2022-08-02T13:19:07;99402.72;;;27.17;100.00
17311;BME280;8773;43.300;0.394;2022-08-02T13:21:35;99401.84;;;27.16;100.00
17311;BME280;8773;43.300;0.394;2022-08-02T13:24:23;99403.56;;;27.19;100.00
17311;BME280;8773;43.300;0.394;2022-08-02T13:27:07;99408.06;;;27.18;100.00
17311;BME280;8773;43.300;0.394;2022-08-02T13:29:35;99402.59;;;27.21;100.00
17311;BME280;8773;43.300;0.394;2022-08-02T13:32:05;99404.41;;;27.21;100.00